Time;durP1;ratioP1;P1;durP2;ratioP2;P2;SDS_P1;SDS_P2;PMS_P1;PMS_P2;Temp;Humidity;BMP_temperature;BMP_pressure;BME280_temperature;BME280_humidity;BME280_pressure;Samples;Min_cycle;Max_cycle;Signal;HPM_P1;HPM_P2
2023/08/21 00:02:01;;;;;;;3.40;3.10;;;21.50;99.90;;;;;;5073042;28;20200;-73
2023/08/21 00:04:26;;;;;;;2.27;2.17;;;21.50;99.90;;;;;;5072861;28;20163;-73
2023/08/21 00:06:52;;;;;;;2.70;2.50;;;21.50;99.90;;;;;;5073090;28;20176;-73
2023/08/21 00:09:17;;;;;;;4.60;4.17;;;21.50;99.90;;;;;;5073179;28;20659;-71
2023/08/21 00:11:43;;;;;;;8.77;3.80;;;21.50;99.90;;;;;;5072982;28;20288;-72
2023/08/21 00:14:09;;;;;;;4.50;2.80;;;21.40;99.90;;;;;;5072952;28;20258;-73
2023/08/21 00:16:34;;;;;;;2.93;2.80;;;21.40;99.90;;;;;;5073194;28;20165;-72
2023/08/21 00:19:00;;;;;;;2.10;2.00;;;21.40;99.90;;;;;;5073019;28;20181;-71
2023/08/21 00:21:25;;;;;;;3.30;3.00;;;21.40;99.90;;;;;;5072829;28;20216;-71
2023/08/21 00:23:51;;;;;;;3.20;2.77;;;21.50;99.90;;;;;;5073127;28;20182;-72
2023/08/21 00:26:17;;;;;;;4.10;3.80;;;21.50;99.90;;;;;;5072889;28;20180;-73
2023/08/21 00:28:43;;;;;;;2.03;1.93;;;;;;;;;;5072993;28;20244;-71
2023/08/21 00:31:09;;;;;;;5.37;3.27;;;21.30;99.90;;;;;;5073006;28;20195;-72
2023/08/21 00:33:34;;;;;;;3.37;3.07;;;21.30;99.90;;;;;;5075992;28;20907;-72
2023/08/21 00:36:00;;;;;;;5.30;3.40;;;21.30;99.90;;;;;;5076490;28;20179;-72
2023/08/21 00:38:26;;;;;;;3.67;3.37;;;21.30;99.90;;;;;;5076691;28;20218;-73
2023/08/21 00:40:52;;;;;;;6.10;3.50;;;;;;;;;;5076718;28;20223;-72
2023/08/21 00:43:18;;;;;;;3.80;3.50;;;21.20;99.90;;;;;;5076542;28;20754;-71
2023/08/21 00:45:45;;;;;;;4.40;4.00;;;21.20;99.90;;;;;;5076490;28;20408;-73
2023/08/21 00:48:12;;;;;;;3.30;3.00;;;21.00;99.90;;;;;;5076481;28;20263;-72
2023/08/21 00:50:39;;;;;;;5.60;3.57;;;;;;;;;;5076554;28;20454;-72
2023/08/21 00:53:06;;;;;;;5.10;2.83;;;21.00;99.90;;;;;;5076614;28;20746;-72
2023/08/21 00:55:32;;;;;;;3.53;3.23;;;20.70;99.90;;;;;;5076239;28;20408;-72
2023/08/21 00:57:58;;;;;;;2.83;2.63;;;20.90;99.90;;;;;;5076467;28;20407;-73
2023/08/21 01:00:27;;;;;;;6.23;4.20;;;20.90;99.90;;;;;;5076353;28;20460;-72
2023/08/21 01:02:52;;;;;;;5.43;3.30;;;20.90;99.90;;;;;;5076188;28;20441;-72
2023/08/21 01:05:22;;;;;;;3.73;3.50;;;;;;;;;;5075937;28;20410;-71
2023/08/21 01:07:59;;;;;;;5.23;3.40;;;20.70;99.90;;;;;;5076366;28;20230;-71
2023/08/21 01:10:52;;;;;;;4.23;3.93;;;20.80;99.90;;;;;;5076302;28;20441;-71
2023/08/21 01:13:17;;;;;;;4.70;4.27;;;20.90;99.90;;;;;;5075932;28;20488;-72
2023/08/21 01:15:44;;;;;;;3.40;3.07;;;20.90;99.90;;;;;;5075859;28;20505;-72
2023/08/21 01:18:10;;;;;;;5.20;4.70;;;20.90;99.90;;;;;;5075975;28;20172;-72
2023/08/21 01:20:37;;;;;;;4.50;4.10;;;20.90;99.90;;;;;;5075799;28;20472;-73
2023/08/21 01:23:06;;;;;;;3.63;3.43;;;20.90;99.90;;;;;;5076022;28;20405;-73
2023/08/21 01:25:32;;;;;;;1.70;1.50;;;20.90;99.90;;;;;;5075619;28;20413;-72
2023/08/21 01:27:58;;;;;;;5.57;4.20;;;20.90;99.90;;;;;;5076010;28;20412;-71
2023/08/21 01:30:25;;;;;;;4.37;4.00;;;20.80;99.90;;;;;;5075694;28;20464;-72
2023/08/21 01:33:10;;;;;;;19.23;3.67;;;20.80;99.90;;;;;;5075643;28;20405;-73
2023/08/21 01:35:36;;;;;;;5.87;4.27;;;20.70;99.90;;;;;;5075694;28;20405;-71
2023/08/21 01:38:03;;;;;;;4.07;3.70;;;20.70;99.90;;;;;;5075519;28;20418;-72
2023/08/21 01:40:29;;;;;;;3.80;3.23;;;20.70;99.90;;;;;;5075456;28;20459;-72
2023/08/21 01:42:55;;;;;;;3.43;3.13;;;20.70;99.90;;;;;;5075087;28;20428;-72
2023/08/21 01:45:21;;;;;;;3.37;3.07;;;20.80;99.90;;;;;;5075307;28;20413;-71
2023/08/21 01:47:47;;;;;;;3.70;2.67;;;20.80;99.90;;;;;;5075472;28;20619;-73
2023/08/21 01:50:13;;;;;;;4.17;3.80;;;20.70;99.90;;;;;;5075072;28;20442;-72
2023/08/21 01:52:39;;;;;;;3.90;3.50;;;20.70;99.90;;;;;;5075492;28;20186;-72
2023/08/21 01:55:07;;;;;;;3.50;2.30;;;20.70;99.90;;;;;;5075140;28;20178;-72
2023/08/21 01:57:33;;;;;;;4.63;4.23;;;20.80;99.90;;;;;;5075536;28;20523;-71
2023/08/21 01:59:59;;;;;;;6.23;3.50;;;20.90;99.90;;;;;;5075005;28;20455;-71
2023/08/21 02:02:24;;;;;;;4.13;3.60;;;20.70;99.90;;;;;;5075122;28;20842;-71
2023/08/21 02:04:51;;;;;;;2.93;2.73;;;;;;;;;;5074918;28;20201;-71
2023/08/21 02:07:16;;;;;;;4.00;3.47;;;20.60;99.90;;;;;;5074867;28;20177;-72
2023/08/21 02:09:42;;;;;;;3.90;3.60;;;;;;;;;;5075379;28;20767;-72
2023/08/21 02:12:08;;;;;;;3.53;3.20;;;20.60;99.90;;;;;;5074835;28;20202;-72
2023/08/21 02:14:34;;;;;;;3.40;3.10;;;;;;;;;;5074679;28;20509;-72
2023/08/21 02:16:59;;;;;;;3.17;2.97;;;20.70;99.90;;;;;;5074856;28;20205;-71
2023/08/21 02:19:25;;;;;;;5.23;3.50;;;20.60;99.90;;;;;;5074785;28;20947;-71
2023/08/21 02:21:51;;;;;;;3.40;3.10;;;20.60;99.90;;;;;;5074634;28;20277;-71
2023/08/21 02:24:16;;;;;;;3.97;3.67;;;20.70;99.90;;;;;;5074658;28;20214;-72
2023/08/21 02:26:45;;;;;;;7.83;3.47;;;;;;;;;;5074550;28;20756;-71
2023/08/21 02:29:10;;;;;;;5.67;3.73;;;20.60;99.90;;;;;;5074595;28;20256;-71
2023/08/21 02:31:36;;;;;;;2.90;2.70;;;;;;;;;;5074469;28;20481;-71
2023/08/21 02:34:02;;;;;;;5.13;4.53;;;20.50;99.90;;;;;;5074220;28;20175;-72
2023/08/21 02:36:28;;;;;;;8.70;3.10;;;20.50;99.90;;;;;;5074433;28;20922;-72
2023/08/21 02:38:54;;;;;;;2.30;2.17;;;20.50;99.90;;;;;;5074372;28;20545;-72
2023/08/21 02:41:20;;;;;;;3.57;3.37;;;20.40;99.90;;;;;;5074150;28;20203;-71
2023/08/21 02:43:46;;;;;;;3.67;3.37;;;;;;;;;;5074275;28;20412;-72
2023/08/21 02:46:12;;;;;;;4.33;3.93;;;20.40;99.90;;;;;;5074137;28;20227;-72
2023/08/21 02:48:38;;;;;;;8.00;4.20;;;;;;;;;;5074232;28;20412;-72
2023/08/21 02:51:03;;;;;;;5.77;4.30;;;20.40;99.90;;;;;;5074183;28;20678;-72
2023/08/21 02:53:29;;;;;;;3.50;3.20;;;20.40;99.90;;;;;;5074039;28;20408;-72
2023/08/21 02:55:55;;;;;;;4.20;3.00;;;20.30;99.90;;;;;;5073263;28;20174;-73
2023/08/21 02:58:20;;;;;;;5.03;2.70;;;20.20;99.90;;;;;;5074018;28;20856;-71
2023/08/21 03:00:46;;;;;;;2.60;2.50;;;20.20;99.90;;;;;;5073822;28;20666;-72
2023/08/21 03:03:12;;;;;;;5.27;3.40;;;20.20;99.90;;;;;;5073978;28;20682;-72
2023/08/21 03:05:37;;;;;;;3.57;3.27;;;20.30;99.90;;;;;;5073662;28;20201;-71
2023/08/21 03:08:03;;;;;;;10.07;3.60;;;20.40;99.90;;;;;;5074351;28;20174;-71
2023/08/21 03:10:33;;;;;;;3.57;3.23;;;;;;;;;;5073627;28;20202;-72
2023/08/21 03:12:59;;;;;;;8.90;5.10;;;20.40;99.90;;;;;;5073199;28;20169;-72
2023/08/21 03:15:25;;;;;;;4.67;4.27;;;20.70;99.90;;;;;;5073747;28;20419;-71
2023/08/21 03:17:50;;;;;;;2.97;2.77;;;20.20;99.90;;;;;;5073801;28;20420;-71
2023/08/21 03:20:17;;;;;;;4.03;3.73;;;20.30;99.90;;;;;;5073464;28;20284;-71
2023/08/21 03:22:43;;;;;;;3.60;3.30;;;20.30;99.90;;;;;;5073608;28;20170;-72
2023/08/21 03:25:09;;;;;;;3.77;3.57;;;20.20;99.90;;;;;;5073351;28;20419;-72
2023/08/21 03:27:39;;;;;;;2.77;2.63;;;;;;;;;;5073492;28;20404;-73
2023/08/21 03:30:06;;;;;;;2.53;2.17;;;20.00;99.90;;;;;;5073602;28;20408;-72
2023/08/21 03:32:32;;;;;;;4.77;4.37;;;20.00;99.90;;;;;;5073272;28;20412;-72
2023/08/21 03:34:58;;;;;;;3.40;3.10;;;20.10;99.90;;;;;;5073362;28;20435;-72
2023/08/21 03:37:24;;;;;;;2.37;2.23;;;20.10;99.90;;;;;;5073739;28;20761;-71
2023/08/21 03:39:49;;;;;;;3.73;3.43;;;20.00;99.90;;;;;;5073635;28;20220;-72
2023/08/21 03:42:15;;;;;;;2.80;2.60;;;20.00;99.90;;;;;;5073311;28;20284;-72
2023/08/21 03:44:40;;;;;;;5.23;4.83;;;20.10;99.90;;;;;;5073203;28;20180;-71
2023/08/21 03:47:06;;;;;;;2.93;2.73;;;20.00;99.90;;;;;;5073563;28;20642;-71
2023/08/21 03:49:32;;;;;;;3.27;3.07;;;20.00;99.90;;;;;;5073249;28;20197;-72
2023/08/21 03:51:58;;;;;;;2.57;2.37;;;;;;;;;;5073171;28;20200;-71
2023/08/21 03:54:24;;;;;;;2.47;2.30;;;;;;;;;;5073146;28;20690;-72
2023/08/21 03:56:49;;;;;;;4.10;3.43;;;20.10;99.90;;;;;;5073311;28;20400;-73
2023/08/21 03:59:15;;;;;;;2.97;2.77;;;20.10;99.90;;;;;;5073406;28;20780;-72
2023/08/21 04:01:40;;;;;;;4.10;3.67;;;20.00;99.90;;;;;;5073118;28;20201;-72
2023/08/21 04:04:06;;;;;;;4.37;2.90;;;19.90;99.90;;;;;;5072990;28;20180;-71
2023/08/21 04:06:32;;;;;;;3.77;3.47;;;20.00;99.90;;;;;;5074975;28;20197;-72
2023/08/21 04:08:58;;;;;;;4.20;3.90;;;20.00;99.90;;;;;;5077260;28;20169;-72
2023/08/21 04:11:23;;;;;;;5.73;4.70;;;20.00;99.90;;;;;;5076733;28;20428;-71
2023/08/21 04:13:49;;;;;;;9.10;3.23;;;20.00;99.90;;;;;;5077255;28;20169;-72
2023/08/21 04:16:17;;;;;;;14.80;3.73;;;;;;;;;;5076983;28;20571;-72
2023/08/21 04:18:43;;;;;;;4.50;3.27;;;19.90;99.90;;;;;;5077090;28;20180;-71
2023/08/21 04:21:09;;;;;;;4.37;3.20;;;19.80;99.90;;;;;;5076835;28;20468;-71
2023/08/21 04:23:35;;;;;;;4.80;3.70;;;19.90;99.90;;;;;;5077116;28;20529;-72
2023/08/21 04:26:02;;;;;;;2.50;2.30;;;19.90;99.90;;;;;;5076862;28;20496;-72
2023/08/21 04:28:30;;;;;;;3.63;2.63;;;19.90;99.90;;;;;;5076964;28;20783;-72
2023/08/21 04:30:57;;;;;;;3.70;2.73;;;19.80;99.90;;;;;;5076746;28;20431;-72
2023/08/21 04:33:27;;;;;;;3.40;3.20;;;20.00;99.90;;;;;;5076953;28;20753;-71
2023/08/21 04:35:53;;;;;;;4.10;3.73;;;19.70;99.90;;;;;;5076746;28;20411;-70
2023/08/21 04:38:19;;;;;;;2.50;2.10;;;19.70;99.90;;;;;;5076642;28;20400;-72
2023/08/21 04:40:44;;;;;;;3.37;3.07;;;19.70;99.90;;;;;;5076719;28;20334;-71
2023/08/21 04:43:10;;;;;;;5.50;3.10;;;19.70;99.90;;;;;;5076479;28;20531;-72
2023/08/21 04:45:37;;;;;;;5.03;4.37;;;19.90;99.90;;;;;;5076443;28;20172;-71
2023/08/21 04:48:06;;;;;;;9.00;3.13;;;20.70;99.90;;;;;;5076506;28;20164;-73
2023/08/21 04:50:32;;;;;;;4.23;3.77;;;19.90;99.90;;;;;;5076296;28;20451;-72
2023/08/21 04:52:57;;;;;;;5.13;3.60;;;20.00;99.90;;;;;;5076523;28;20495;-72
2023/08/21 04:55:23;;;;;;;4.90;4.50;;;20.00;99.90;;;;;;5076183;28;20631;-72
2023/08/21 04:57:49;;;;;;;4.47;4.07;;;20.00;99.90;;;;;;5076346;28;20563;-73
2023/08/21 05:00:15;;;;;;;7.00;3.67;;;19.80;99.90;;;;;;5076294;28;20542;-72
2023/08/21 05:02:41;;;;;;;3.93;3.57;;;20.00;99.90;;;;;;5076181;28;20176;-72
2023/08/21 05:05:08;;;;;;;4.00;3.03;;;;;;;;;;5076131;28;20461;-72
2023/08/21 05:07:35;;;;;;;5.00;2.63;;;20.00;99.90;;;;;;5076329;28;20268;-72
2023/08/21 05:10:01;;;;;;;4.37;3.97;;;20.00;99.90;;;;;;5076200;28;20418;-71
2023/08/21 05:12:27;;;;;;;3.50;3.20;;;20.00;99.90;;;;;;5076126;28;20491;-72
2023/08/21 05:14:53;;;;;;;5.80;3.30;;;20.00;99.90;;;;;;5076005;28;20436;-72
2023/08/21 05:17:19;;;;;;;3.47;3.23;;;20.00;99.90;;;;;;5075794;28;20178;-73
2023/08/21 05:19:44;;;;;;;3.07;2.87;;;20.10;99.90;;;;;;5075657;28;20315;-73
2023/08/21 05:22:10;;;;;;;5.93;4.03;;;20.20;99.90;;;;;;5075929;28;20200;-73
2023/08/21 05:24:35;;;;;;;3.70;3.50;;;20.20;99.90;;;;;;5075898;28;20169;-73
2023/08/21 05:27:01;;;;;;;5.30;3.70;;;20.20;99.90;;;;;;5075925;28;20173;-71
2023/08/21 05:29:26;;;;;;;3.33;3.00;;;20.60;99.90;;;;;;5075747;28;20175;-72
2023/08/21 05:31:52;;;;;;;4.90;4.50;;;20.50;99.90;;;;;;5075582;28;20188;-72
2023/08/21 05:34:18;;;;;;;4.70;3.20;;;21.10;99.90;;;;;;5075451;28;20613;-72
2023/08/21 05:36:43;;;;;;;4.17;2.87;;;22.00;99.90;;;;;;5075744;28;20173;-71
2023/08/21 05:39:09;;;;;;;5.00;3.90;;;23.20;99.90;;;;;;5075675;28;20173;-72
2023/08/21 05:41:34;;;;;;;2.73;2.53;;;24.30;99.90;;;;;;5075327;28;20673;-71
2023/08/21 05:44:00;;;;;;;3.30;2.63;;;;;;;;;;5075297;28;20291;-73
2023/08/21 05:46:26;;;;;;;4.57;4.27;;;25.10;99.90;;;;;;5075497;28;20166;-72
2023/08/21 05:48:52;;;;;;;4.00;3.80;;;25.30;99.90;;;;;;5075015;28;20400;-73
2023/08/21 05:51:18;;;;;;;2.67;2.47;;;;;;;;;;5075281;28;20201;-73
2023/08/21 05:53:44;;;;;;;4.77;3.23;;;;;;;;;;5075312;28;20216;-72
2023/08/21 05:56:09;;;;;;;3.20;2.93;;;26.90;97.60;;;;;;5074962;28;20523;-73
2023/08/21 05:58:35;;;;;;;3.20;2.90;;;27.80;96.70;;;;;;5075206;28;20403;-73
2023/08/21 06:01:01;;;;;;;2.40;2.03;;;28.70;94.40;;;;;;5075146;28;20212;-72
2023/08/21 06:03:26;;;;;;;2.30;2.10;;;29.30;92.50;;;;;;5075475;28;20166;-73
2023/08/21 06:05:52;;;;;;;3.17;2.47;;;29.60;91.00;;;;;;5074875;28;20204;-73
2023/08/21 06:08:18;;;;;;;3.77;3.40;;;29.50;90.50;;;;;;5075158;28;20177;-72
2023/08/21 06:10:44;;;;;;;3.97;3.07;;;29.30;90.70;;;;;;5074873;28;20190;-73
2023/08/21 06:13:09;;;;;;;3.07;2.80;;;29.50;90.50;;;;;;5074948;28;20248;-73
2023/08/21 06:15:35;;;;;;;3.60;3.40;;;;;;;;;;5074729;28;20403;-72
2023/08/21 06:18:01;;;;;;;2.93;2.63;;;;;;;;;;5075022;28;20661;-72
2023/08/21 06:20:27;;;;;;;3.20;2.67;;;;;;;;;;5074753;28;20481;-73
2023/08/21 06:22:53;;;;;;;3.70;3.10;;;;;;;;;;5073368;28;20477;-73
2023/08/21 06:25:19;;;;;;;8.23;2.97;;;30.20;86.60;;;;;;5074641;28;20509;-73
2023/08/21 06:27:45;;;;;;;3.03;2.57;;;29.60;88.40;;;;;;5074620;28;20412;-72
2023/08/21 06:30:11;;;;;;;2.10;1.97;;;28.80;99.90;;;;;;5073767;28;20177;-73
2023/08/21 06:32:36;;;;;;;2.40;2.17;;;28.50;91.50;;;;;;5074560;28;20757;-72
2023/08/21 06:35:02;;;;;;;3.20;2.93;;;28.30;91.80;;;;;;5074354;28;20461;-73
2023/08/21 06:37:28;;;;;;;3.00;2.80;;;28.10;92.20;;;;;;5074642;28;20173;-73
2023/08/21 06:39:53;;;;;;;2.10;2.00;;;28.10;92.30;;;;;;5074253;28;20205;-72
2023/08/21 06:42:19;;;;;;;1.93;1.83;;;28.20;92.10;;;;;;5074247;28;20196;-73
2023/08/21 06:44:45;;;;;;;2.60;2.40;;;28.20;92.60;;;;;;5074248;28;20173;-72
2023/08/21 06:47:10;;;;;;;2.80;2.60;;;28.00;92.30;;;;;;5074291;28;20617;-72
2023/08/21 06:49:36;;;;;;;3.13;2.83;;;27.80;92.80;;;;;;5074140;28;20233;-74
2023/08/21 06:52:03;;;;;;;3.23;2.93;;;27.70;93.40;;;;;;5074123;28;20203;-72
2023/08/21 06:54:29;;;;;;;2.10;2.00;;;;;;;;;;5073915;28;20185;-72
2023/08/21 06:56:55;;;;;;;2.63;2.40;;;27.40;94.10;;;;;;5072805;28;20768;-73
2023/08/21 06:59:21;;;;;;;2.20;1.97;;;;;;;;;;5074363;28;20411;-72
2023/08/21 07:01:47;;;;;;;2.53;2.33;;;;;;;;;;5073866;28;20217;-72
2023/08/21 07:04:13;;;;;;;3.30;2.63;;;27.20;94.30;;;;;;5073803;28;20407;-72
2023/08/21 07:06:39;;;;;;;3.07;2.87;;;;;;;;;;5074058;28;20407;-73
2023/08/21 07:09:05;;;;;;;2.87;2.27;;;;;;;;;;5073861;28;20404;-72
2023/08/21 07:11:31;;;;;;;2.40;2.27;;;27.20;95.00;;;;;;5073697;28;20439;-72
2023/08/21 07:13:57;;;;;;;5.00;2.83;;;27.40;95.80;;;;;;5073638;28;20404;-73
2023/08/21 07:16:23;;;;;;;3.17;2.97;;;;;;;;;;5073816;28;20173;-73
2023/08/21 07:18:49;;;;;;;3.77;2.73;;;;;;;;;;5073835;28;20935;-73
2023/08/21 07:21:15;;;;;;;2.77;2.57;;;28.00;95.10;;;;;;5073413;28;20463;-73
2023/08/21 07:23:40;;;;;;;2.43;2.23;;;28.20;95.10;;;;;;5073564;28;20490;-73
2023/08/21 07:26:07;;;;;;;3.23;2.93;;;28.60;94.50;;;;;;5072210;28;20597;-73
2023/08/21 07:28:33;;;;;;;3.90;3.60;;;;;;;;;;5073579;28;20173;-72
2023/08/21 07:30:59;;;;;;;2.73;2.53;;;;;;;;;;5073623;28;20431;-72
2023/08/21 07:33:26;;;;;;;6.53;3.47;;;30.30;92.30;;;;;;5073494;28;20456;-72
2023/08/21 07:36:02;;;;;;;2.37;2.20;;;31.20;91.20;;;;;;5073165;28;20778;-72
2023/08/21 07:38:28;;;;;;;2.23;2.10;;;32.10;89.00;;;;;;5073660;28;20414;-73
2023/08/21 07:41:10;;;;;;;3.77;3.43;;;33.20;85.80;;;;;;5072909;28;20963;-73
2023/08/21 07:43:36;;;;;;;2.63;2.30;;;34.60;80.20;;;;;;5073709;28;20162;-74
2023/08/21 07:46:06;;;;;;;3.47;2.97;;;36.10;76.20;;;;;;5073371;28;20415;-74
2023/08/21 07:48:32;;;;;;;1.97;1.80;;;37.70;70.10;;;;;;5073398;28;20407;-73
2023/08/21 07:50:58;;;;;;;2.40;2.20;;;39.20;62.70;;;;;;5073103;28;20546;-73
2023/08/21 07:53:26;;;;;;;2.83;2.73;;;40.40;58.80;;;;;;5073379;28;20833;-74
2023/08/21 07:55:51;;;;;;;6.60;2.97;;;41.60;56.00;;;;;;5072987;28;20391;-74
2023/08/21 07:58:17;;;;;;;2.33;2.17;;;42.70;53.20;;;;;;5073382;28;20610;-74
2023/08/21 08:00:43;;;;;;;2.80;2.60;;;43.30;50.30;;;;;;5073227;28;20201;-72
2023/08/21 08:03:10;;;;;;;3.10;2.70;;;43.80;47.10;;;;;;5073112;28;20399;-72
2023/08/21 08:05:36;;;;;;;2.77;2.53;;;;;;;;;;5072990;28;20178;-72
2023/08/21 08:08:03;;;;;;;2.57;2.37;;;44.10;44.00;;;;;;5073073;28;20482;-73
2023/08/21 08:10:29;;;;;;;4.83;2.40;;;;;;;;;;5073421;28;20915;-72
2023/08/21 08:12:54;;;;;;;3.13;2.93;;;44.20;42.40;;;;;;5073251;28;20395;-72
2023/08/21 08:15:21;;;;;;;2.50;2.40;;;43.80;43.70;;;;;;5072879;28;20442;-72
2023/08/21 08:17:46;;;;;;;2.37;2.20;;;43.70;43.40;;;;;;5073147;28;20223;-72
2023/08/21 08:20:13;;;;;;;3.23;2.50;;;43.40;59.40;;;;;;5073212;28;20477;-71
2023/08/21 08:22:39;;;;;;;2.43;2.23;;;43.70;42.80;;;;;;5073058;28;20169;-72
2023/08/21 08:25:08;;;;;;;2.70;2.50;;;43.30;43.10;;;;;;5072934;28;20931;-72
2023/08/21 08:27:34;;;;;;;2.17;2.07;;;;;;;;;;5072954;28;20423;-72
2023/08/21 08:30:00;;;;;;;2.97;2.70;;;;;;;;;;5072678;28;20447;-72
2023/08/21 08:32:26;;;;;;;5.33;2.77;;;42.80;43.20;;;;;;5073155;28;20411;-72
2023/08/21 08:34:53;;;;;;;2.73;2.53;;;42.50;44.00;;;;;;5072880;28;20407;-72
2023/08/21 08:37:19;;;;;;;2.93;2.73;;;42.60;43.70;;;;;;5072974;28;20169;-71
2023/08/21 08:39:47;;;;;;;2.80;2.60;;;42.70;43.90;;;;;;5073141;28;20910;-72
2023/08/21 08:42:14;;;;;;;3.40;3.17;;;43.00;43.20;;;;;;5072819;28;20227;-72
2023/08/21 08:44:41;;;;;;;2.40;2.03;;;43.00;43.10;;;;;;5072699;28;20418;-72
2023/08/21 08:47:11;;;;;;;2.50;2.30;;;42.70;43.50;;;;;;5072766;28;20407;-72
2023/08/21 08:49:37;;;;;;;3.33;2.67;;;42.80;43.10;;;;;;5072734;28;20479;-73
2023/08/21 08:52:04;;;;;;;2.27;2.07;;;42.80;43.40;;;;;;5072662;28;20431;-72
2023/08/21 08:54:30;;;;;;;2.43;2.23;;;43.20;42.30;;;;;;5075549;28;20406;-72
2023/08/21 08:56:56;;;;;;;3.00;2.70;;;43.20;42.80;;;;;;5076466;28;20985;-72
2023/08/21 08:59:22;;;;;;;1.97;1.87;;;43.10;43.30;;;;;;5076502;28;20440;-72
2023/08/21 09:01:48;;;;;;;2.27;2.07;;;42.90;43.10;;;;;;5076215;28;20946;-72
2023/08/21 09:04:14;;;;;;;3.00;2.80;;;43.20;42.70;;;;;;5076066;28;20172;-72
2023/08/21 09:06:40;;;;;;;2.30;2.10;;;43.10;41.70;;;;;;5076184;28;20173;-73
2023/08/21 09:09:07;;;;;;;3.90;3.10;;;42.90;42.60;;;;;;5076319;28;20188;-72
2023/08/21 09:11:33;;;;;;;2.70;2.50;;;42.90;43.10;;;;;;5076081;28;20196;-72
2023/08/21 09:13:59;;;;;;;2.63;2.43;;;43.00;42.20;;;;;;5075850;28;20764;-72
2023/08/21 09:16:26;;;;;;;2.60;2.47;;;43.10;41.80;;;;;;5076302;28;20396;-72
2023/08/21 09:18:58;;;;;;;3.73;2.50;;;43.20;42.70;;;;;;5076151;28;20629;-72
2023/08/21 09:21:27;;;;;;;2.60;2.40;;;43.20;42.30;;;;;;5076062;28;20430;-72
2023/08/21 09:24:02;;;;;;;3.70;3.20;;;42.40;42.30;;;;;;5075930;28;20399;-74
2023/08/21 09:26:34;;;;;;;2.87;2.67;;;42.30;43.30;;;;;;5075951;28;20399;-72
2023/08/21 09:29:04;;;;;;;2.53;2.33;;;42.50;42.70;;;;;;5076026;28;20419;-72
2023/08/21 09:31:31;;;;;;;3.27;3.07;;;43.00;42.70;;;;;;5075899;28;20813;-72
2023/08/21 09:34:04;;;;;;;2.40;2.10;;;43.00;43.20;;;;;;5075652;28;20967;-72
2023/08/21 09:36:31;;;;;;;5.40;2.87;;;43.40;42.20;;;;;;5075746;28;20403;-72
2023/08/21 09:38:56;;;;;;;3.13;2.93;;;43.10;42.50;;;;;;5075709;28;20493;-72
2023/08/21 09:41:23;;;;;;;2.60;2.40;;;43.10;42.30;;;;;;5075667;28;20524;-71
2023/08/21 09:43:50;;;;;;;3.10;2.90;;;42.70;43.40;;;;;;5075881;28;20182;-71
2023/08/21 09:46:24;;;;;;;2.37;2.23;;;42.40;42.70;;;;;;5075376;28;20433;-71
2023/08/21 09:48:51;;;;;;;8.30;2.93;;;42.40;43.10;;;;;;5075359;28;20419;-71
2023/08/21 09:51:18;;;;;;;4.10;3.70;;;;;;;;;;5075414;28;20471;-72
2023/08/21 09:53:44;;;;;;;6.37;3.47;;;42.10;42.90;;;;;;5075305;28;20441;-72
2023/08/21 09:56:10;;;;;;;2.87;2.63;;;42.10;43.70;;;;;;5075083;28;20424;-73
2023/08/21 09:58:37;;;;;;;2.80;2.60;;;42.00;44.30;;;;;;5073905;28;20820;-72
2023/08/21 10:01:13;;;;;;;4.83;2.80;;;42.10;45.10;;;;;;5075107;28;20434;-71
2023/08/21 10:03:40;;;;;;;3.00;2.70;;;42.60;43.30;;;;;;5074918;28;20388;-72
2023/08/21 10:06:08;;;;;;;3.40;2.73;;;42.70;44.00;;;;;;5074856;28;20411;-71
2023/08/21 10:08:40;;;;;;;2.93;2.73;;;41.60;43.10;;;;;;5075255;28;20466;-71
2023/08/21 10:11:08;;;;;;;5.90;2.20;;;40.60;44.20;;;;;;5075053;28;20447;-72
2023/08/21 10:13:36;;;;;;;3.00;2.43;;;40.50;44.10;;;;;;5074988;28;20410;-72
2023/08/21 10:16:02;;;;;;;3.43;3.13;;;40.40;44.20;;;;;;5074870;28;20457;-72
2023/08/21 10:18:34;;;;;;;3.17;2.87;;;39.60;45.70;;;;;;5074917;28;20411;-72
2023/08/21 10:21:18;;;;;;;6.73;2.23;;;38.80;48.20;;;;;;5074652;28;20511;-73
2023/08/21 10:23:51;;;;;;;2.50;2.30;;;38.40;47.30;;;;;;5074715;28;20404;-73
2023/08/21 10:26:21;;;;;;;6.53;3.23;;;38.30;46.70;;;;;;5074721;28;20396;-72
2023/08/21 10:28:59;;;;;;;2.43;2.30;;;38.20;45.20;;;;;;5074763;28;20427;-72
2023/08/21 10:31:28;;;;;;;2.53;2.33;;;37.80;46.70;;;;;;5074500;28;20875;-72
2023/08/21 10:33:54;;;;;;;3.70;2.80;;;38.00;46.70;;;;;;5074409;28;20448;-72
2023/08/21 10:36:42;;;;;;;2.80;2.50;;;38.50;44.70;;;;;;5074572;28;20457;-72
2023/08/21 10:39:17;;;;;;;2.73;2.53;;;38.20;46.40;;;;;;5074575;28;20423;-74
2023/08/21 10:41:55;;;;;;;2.30;2.13;;;37.50;47.20;;;;;;5074485;28;20419;-75
2023/08/21 10:44:37;;;;;;;2.80;2.60;;;37.60;46.40;;;;;;5074165;28;20400;-72
2023/08/21 10:47:23;;;;;;;3.00;2.80;;;37.40;45.00;;;;;;5074469;28;20396;-72
2023/08/21 10:50:03;;;;;;;3.00;2.60;;;36.60;46.20;;;;;;5073874;28;20430;-71
2023/08/21 10:52:37;;;;;;;2.50;2.30;;;35.80;49.90;;;;;;5074295;28;20403;-72
2023/08/21 10:55:04;;;;;;;2.37;2.27;;;35.10;51.40;;;;;;5073941;28;20400;-72
2023/08/21 10:57:31;;;;;;;4.37;2.40;;;34.40;53.30;;;;;;5073979;28;20434;-71
2023/08/21 10:59:58;;;;;;;2.47;2.27;;;33.90;53.70;;;;;;5074237;28;20403;-71
2023/08/21 11:02:25;;;;;;;1.83;1.70;;;34.10;51.60;;;;;;5074151;28;20404;-72
2023/08/21 11:04:52;;;;;;;2.20;2.00;;;34.20;50.10;;;;;;5073761;28;20392;-72
2023/08/21 11:07:18;;;;;;;2.20;2.10;;;34.10;51.20;;;;;;5073923;28;20400;-72
2023/08/21 11:09:44;;;;;;;2.50;1.93;;;;;;;;;;5073838;28;20415;-72
2023/08/21 11:12:12;;;;;;;5.37;2.27;;;33.50;51.00;;;;;;5073716;28;20197;-72
2023/08/21 11:14:39;;;;;;;2.43;2.23;;;;;;;;;;5073629;28;20407;-72
2023/08/21 11:17:05;;;;;;;2.13;1.60;;;33.10;54.10;;;;;;5073343;28;20768;-72
2023/08/21 11:19:35;;;;;;;3.20;2.57;;;32.10;53.90;;;;;;5073837;28;20542;-73
2023/08/21 11:22:04;;;;;;;3.30;2.10;;;32.00;54.30;;;;;;5072606;28;20816;-71
2023/08/21 11:24:53;;;;;;;2.67;2.47;;;31.40;60.70;;;;;;5073294;28;20422;-71
2023/08/21 11:27:19;;;;;;;2.40;1.50;;;;;;;;;;5073616;28;20419;-71
2023/08/21 11:29:47;;;;;;;2.35;2.15;;;30.20;67.70;;;;;;5073522;28;20411;-72
2023/08/21 11:32:14;;;;;;;4.03;2.47;;;30.70;63.20;;;;;;5073448;28;20916;-72
2023/08/21 11:34:41;;;;;;;5.70;2.77;;;30.60;63.80;;;;;;5073429;28;20414;-72
2023/08/21 11:37:07;;;;;;;1.93;1.83;;;31.30;59.20;;;;;;5073634;28;20396;-71
2023/08/21 11:39:41;;;;;;;2.83;2.50;;;31.80;53.60;;;;;;5073625;28;20808;-72
2023/08/21 11:42:11;;;;;;;5.10;2.20;;;32.10;55.60;;;;;;5073255;28;20197;-72
2023/08/21 11:44:44;;;;;;;4.27;2.20;;;32.10;56.00;;;;;;5073364;28;20439;-72
2023/08/21 11:47:10;;;;;;;3.40;3.00;;;;;;;;;;5073531;28;20802;-72
2023/08/21 11:49:38;;;;;;;2.23;1.77;;;32.50;55.50;;;;;;5073213;28;20481;-71
2023/08/21 11:52:04;;;;;;;4.23;2.80;;;32.40;56.00;;;;;;5073148;28;20513;-71
2023/08/21 11:54:37;;;;;;;3.10;2.90;;;32.20;57.10;;;;;;5073057;28;20404;-72
2023/08/21 11:57:05;;;;;;;2.70;1.97;;;32.80;54.00;;;;;;5073447;28;20170;-72
2023/08/21 11:59:31;;;;;;;3.33;1.70;;;33.00;56.30;;;;;;5073132;28;20806;-72
2023/08/21 12:01:56;;;;;;;1.90;1.80;;;32.90;54.30;;;;;;5073061;28;20534;-72
2023/08/21 12:04:22;;;;;;;2.80;2.57;;;32.80;53.90;;;;;;5073069;28;20173;-72
2023/08/21 12:06:48;;;;;;;6.17;1.87;;;32.80;53.70;;;;;;5073102;28;20177;-71
2023/08/21 12:09:14;;;;;;;5.17;3.07;;;;;;;;;;5073571;28;20185;-72
2023/08/21 12:11:40;;;;;;;2.70;2.50;;;;;;;;;;5072938;28;20212;-72
2023/08/21 12:14:06;;;;;;;2.50;2.13;;;;;;;;;;5072968;28;20396;-73
2023/08/21 12:16:32;;;;;;;3.07;2.87;;;32.60;53.00;;;;;;5073190;28;20400;-71
2023/08/21 12:18:57;;;;;;;3.67;2.80;;;32.40;53.30;;;;;;5073029;28;20430;-72
2023/08/21 12:21:24;;;;;;;3.37;2.90;;;32.10;54.80;;;;;;5073034;28;20197;-72
2023/08/21 12:23:50;;;;;;;3.13;2.50;;;32.00;55.20;;;;;;5073019;28;20174;-71
2023/08/21 12:26:21;;;;;;;2.13;2.03;;;32.10;55.00;;;;;;5072876;28;20412;-72
2023/08/21 12:28:48;;;;;;;2.53;2.33;;;32.20;54.80;;;;;;5076750;28;20400;-72
2023/08/21 12:31:13;;;;;;;2.47;2.27;;;32.30;54.30;;;;;;5076645;28;20463;-72
2023/08/21 12:33:39;;;;;;;2.23;2.13;;;32.30;56.10;;;;;;5076785;28;20430;-72
2023/08/21 12:36:05;;;;;;;1.77;1.67;;;;;;;;;;5076572;28;20219;-73
2023/08/21 12:38:32;;;;;;;2.13;1.93;;;;;;;;;;5076750;28;20256;-73
2023/08/21 12:40:58;;;;;;;2.33;2.10;;;32.10;53.10;;;;;;5076933;28;20438;-72
2023/08/21 12:43:24;;;;;;;2.00;1.90;;;32.20;54.50;;;;;;5076761;28;20404;-72
2023/08/21 12:45:49;;;;;;;1.70;1.60;;;32.10;84.60;;;;;;5076618;28;20531;-72
2023/08/21 12:48:15;;;;;;;3.50;1.77;;;32.00;55.70;;;;;;5076673;28;20277;-73
2023/08/21 12:50:40;;;;;;;1.90;1.80;;;32.00;52.90;;;;;;5076227;28;20586;-73
2023/08/21 12:53:06;;;;;;;2.47;1.70;;;;;;;;;;5076655;28;20173;-73
2023/08/21 12:55:32;;;;;;;4.00;2.17;;;32.10;50.00;;;;;;5076281;28;20242;-72
2023/08/21 12:57:58;;;;;;;3.03;2.23;;;32.10;50.60;;;;;;5076412;28;20407;-72
2023/08/21 13:00:24;;;;;;;2.53;2.17;;;32.10;53.20;;;;;;5076459;28;20207;-73
2023/08/21 13:02:49;;;;;;;2.87;1.50;;;32.10;56.20;;;;;;5076260;28;20174;-73